Terminal Aerodrome Forecast
Issued by NWS Duluth, MN

Home | Current Version | Previous Version | Text Only | Print | Product List | Glossary On
Versions: 1 2 3 4 5 6 7 8 9 10 11 12 13 14 15 16 17 18 19 20 21 22 23 24 25 26 27
000
FTUS43 KDLH 272100 AAA
TAFDLH
TAF AMD
KDLH 272149Z 2722/2818 10008KT P6SM FEW007 SCT080
     FM280000 VRB04KT P6SM VCSH BKN120
     FM280200 VRB05KT 6SM -SHRA SCT008 BKN015
     FM280800 27008KT P6SM VCSH SCT010 OVC035
     FM281400 26010KT 5SM -SHRA SCT010 OVC030=

USA.gov is the U.S. government's official web portal to all federal, state and local government web resources and services.